Time;durP1;ratioP1;P1;durP2;ratioP2;P2;SDS_P1;SDS_P2;PMS_P1;PMS_P2;Temp;Humidity;BMP_temperature;BMP_pressure;BME280_temperature;BME280_humidity;BME280_pressure;Samples;Min_cycle;Max_cycle;Signal;HPM_P1;HPM_P2
2023/12/15 00:00:00;;;;;;;130.50;58.20;;;18.20;61.70;;;;;;5052906;28;20037;-41
2023/12/15 00:02:25;;;;;;;131.38;58.45;;;18.20;61.80;;;;;;5057125;28;20049;-43
2023/12/15 00:04:51;;;;;;;129.68;57.55;;;18.10;61.90;;;;;;5056374;28;20045;-43
2023/12/15 00:07:17;;;;;;;131.20;58.75;;;18.10;61.80;;;;;;5055107;28;20041;-40
2023/12/15 00:09:42;;;;;;;131.43;59.20;;;18.10;62.00;;;;;;5050454;28;20044;-41
2023/12/15 00:12:08;;;;;;;130.27;58.13;;;18.10;62.10;;;;;;5052721;28;20570;-43
2023/12/15 00:14:34;;;;;;;130.95;57.97;;;18.10;62.00;;;;;;5054044;28;20479;-43
2023/12/15 00:16:59;;;;;;;129.52;57.85;;;18.00;62.10;;;;;;5058557;28;20779;-44
2023/12/15 00:19:25;;;;;;;131.57;58.47;;;18.00;62.20;;;;;;5054309;28;20045;-44
2023/12/15 00:21:51;;;;;;;130.75;58.50;;;18.00;62.20;;;;;;5052696;28;20048;-45
2023/12/15 00:24:16;;;;;;;131.60;58.45;;;18.00;62.10;;;;;;5051671;28;20044;-42
2023/12/15 00:26:42;;;;;;;130.00;57.72;;;18.00;62.20;;;;;;5059889;28;20530;-40
2023/12/15 00:29:08;;;;;;;131.30;58.25;;;17.90;62.30;;;;;;5055311;28;20037;-45
2023/12/15 00:31:33;;;;;;;129.70;57.45;;;17.90;62.30;;;;;;5054969;28;20052;-40
2023/12/15 00:33:59;;;;;;;128.93;57.70;;;17.90;62.30;;;;;;5056309;28;20131;-45
2023/12/15 00:36:25;;;;;;;130.45;58.47;;;17.90;62.40;;;;;;5056246;28;20352;-44
2023/12/15 00:38:50;;;;;;;130.40;58.55;;;17.80;62.50;;;;;;5054346;28;20063;-40
2023/12/15 00:41:16;;;;;;;130.98;57.97;;;17.80;62.50;;;;;;5055170;28;20037;-41
2023/12/15 00:43:41;;;;;;;130.88;57.53;;;17.80;62.70;;;;;;5058082;28;20112;-41
2023/12/15 00:46:07;;;;;;;129.32;57.75;;;17.80;62.80;;;;;;5054004;28;20041;-44
2023/12/15 00:48:33;;;;;;;130.55;58.10;;;17.80;62.80;;;;;;5054966;28;20096;-39
2023/12/15 00:50:58;;;;;;;130.93;57.63;;;17.80;62.80;;;;;;5055705;28;20591;-38
2023/12/15 00:53:24;;;;;;;129.65;57.55;;;17.80;62.90;;;;;;5053325;28;21260;-39
2023/12/15 00:55:49;;;;;;;129.38;57.40;;;17.70;62.80;;;;;;5055701;28;20052;-39
2023/12/15 00:58:15;;;;;;;130.35;57.97;;;17.80;62.90;;;;;;5041125;28;20045;-39
2023/12/15 01:00:41;;;;;;;129.68;58.20;;;17.70;62.80;;;;;;5031969;28;20052;-39
2023/12/15 01:03:07;;;;;;;132.30;58.55;;;17.70;63.00;;;;;;5034422;28;21380;-40
2023/12/15 01:05:32;;;;;;;129.70;57.35;;;17.60;63.00;;;;;;5051441;28;20675;-39
2023/12/15 01:07:58;;;;;;;131.25;58.03;;;17.60;63.10;;;;;;5042160;28;20610;-38
2023/12/15 01:10:24;;;;;;;128.82;57.75;;;17.60;63.20;;;;;;5050140;28;20645;-39
2023/12/15 01:12:49;;;;;;;130.50;57.92;;;17.60;63.20;;;;;;5042880;28;20041;-38
2023/12/15 01:15:15;;;;;;;129.75;57.75;;;17.60;63.20;;;;;;5043001;28;20053;-40
2023/12/15 01:17:41;;;;;;;129.77;58.10;;;17.60;63.20;;;;;;5052061;28;20139;-39
2023/12/15 01:20:07;;;;;;;129.48;58.03;;;17.60;63.20;;;;;;5047538;28;20037;-39
2023/12/15 01:22:32;;;;;;;128.18;57.53;;;17.50;63.20;;;;;;5041848;28;20042;-39
2023/12/15 01:24:58;;;;;;;129.85;58.63;;;17.50;63.30;;;;;;5031239;28;21753;-40
2023/12/15 01:27:24;;;;;;;128.80;57.83;;;17.50;63.40;;;;;;5042936;28;20431;-41
2023/12/15 01:29:49;;;;;;;131.18;57.80;;;17.50;63.40;;;;;;5056371;28;20727;-39
2023/12/15 01:32:15;;;;;;;129.73;57.60;;;17.50;63.40;;;;;;5055215;28;20041;-40
2023/12/15 01:34:41;;;;;;;130.43;58.33;;;17.50;63.40;;;;;;5057463;28;20033;-38
2023/12/15 01:37:07;;;;;;;133.52;58.45;;;17.40;63.40;;;;;;5057044;28;20041;-41
2023/12/15 01:39:33;;;;;;;128.25;57.72;;;17.50;63.60;;;;;;5059308;28;20045;-39
2023/12/15 01:41:58;;;;;;;129.85;57.88;;;17.40;63.60;;;;;;5055358;28;20810;-40
2023/12/15 01:44:24;;;;;;;129.95;58.20;;;17.50;63.50;;;;;;5052591;28;20046;-38
2023/12/15 01:46:50;;;;;;;129.88;58.15;;;17.40;63.60;;;;;;5053977;28;20665;-38
2023/12/15 01:49:15;;;;;;;129.07;57.58;;;17.40;63.60;;;;;;5060964;28;20044;-39
2023/12/15 01:51:41;;;;;;;130.05;57.75;;;17.40;63.60;;;;;;5050872;28;20041;-39
2023/12/15 01:54:07;;;;;;;129.23;57.80;;;17.40;63.60;;;;;;5049398;28;20130;-39
2023/12/15 01:56:33;;;;;;;128.88;58.05;;;17.40;63.60;;;;;;5059219;28;20164;-38
2023/12/15 01:58:58;;;;;;;130.80;58.33;;;17.40;63.70;;;;;;5059300;28;20029;-39
2023/12/15 02:01:24;;;;;;;130.70;58.60;;;17.30;63.60;;;;;;5052070;28;20044;-39
2023/12/15 02:03:49;;;;;;;129.93;57.80;;;17.30;63.60;;;;;;5059409;28;20044;-38
2023/12/15 02:06:15;;;;;;;127.88;57.50;;;17.30;63.80;;;;;;5061768;28;20471;-39
2023/12/15 02:08:45;;;;;;;129.15;57.70;;;17.30;63.80;;;;;;5058879;28;20518;-39
2023/12/15 02:11:10;;;;;;;130.23;57.65;;;17.20;63.80;;;;;;5060307;28;20044;-44
2023/12/15 02:13:36;;;;;;;129.32;58.05;;;17.20;63.70;;;;;;5057373;28;20736;-42
2023/12/15 02:16:02;;;;;;;130.13;58.13;;;17.30;64.60;;;;;;5058931;28;20049;-41
2023/12/15 02:18:27;;;;;;;128.80;57.75;;;17.20;63.90;;;;;;5056509;28;20037;-41
2023/12/15 02:20:53;;;;;;;131.05;58.05;;;17.20;63.90;;;;;;5057950;28;20120;-40
2023/12/15 02:23:19;;;;;;;128.98;57.95;;;17.20;63.90;;;;;;5057616;28;20057;-44
2023/12/15 02:25:44;;;;;;;129.00;58.35;;;17.20;63.90;;;;;;5058922;28;20129;-41
2023/12/15 02:28:10;;;;;;;129.15;57.97;;;17.20;64.00;;;;;;5055480;28;20038;-41
2023/12/15 02:30:36;;;;;;;129.25;58.03;;;17.20;64.00;;;;;;5056701;28;20159;-45
2023/12/15 02:33:01;;;;;;;127.95;57.58;;;17.20;64.00;;;;;;5058969;28;20029;-44
2023/12/15 02:35:27;;;;;;;130.65;58.13;;;17.10;64.10;;;;;;5056949;28;20419;-41
2023/12/15 02:37:52;;;;;;;127.45;57.25;;;17.20;64.10;;;;;;5056965;28;20056;-42
2023/12/15 02:40:18;;;;;;;129.52;57.83;;;17.20;64.10;;;;;;5057331;28;20061;-41
2023/12/15 02:42:44;;;;;;;129.88;58.10;;;17.10;64.10;;;;;;5058147;28;20045;-43
2023/12/15 02:45:09;;;;;;;129.27;57.47;;;17.10;64.10;;;;;;5058923;28;20065;-41
2023/12/15 02:47:35;;;;;;;128.52;57.80;;;17.10;64.20;;;;;;5057749;28;20044;-42
2023/12/15 02:50:01;;;;;;;128.13;57.67;;;17.10;64.30;;;;;;5059201;28;20741;-40
2023/12/15 02:52:27;;;;;;;130.10;58.03;;;17.10;64.40;;;;;;5051138;28;20116;-40
2023/12/15 02:54:52;;;;;;;128.73;57.78;;;17.10;64.30;;;;;;5057356;28;20395;-43
2023/12/15 02:57:18;;;;;;;129.27;57.85;;;17.10;64.40;;;;;;5058383;28;20045;-42
2023/12/15 02:59:44;;;;;;;130.40;58.45;;;17.00;64.30;;;;;;5056101;28;20094;-41
2023/12/15 03:02:09;;;;;;;128.68;58.05;;;17.00;64.40;;;;;;5054292;28;20044;-43
2023/12/15 03:04:35;;;;;;;129.93;58.53;;;17.00;64.50;;;;;;5061206;28;20144;-43
2023/12/15 03:07:01;;;;;;;128.55;57.53;;;17.00;64.50;;;;;;5054546;28;21413;-40
2023/12/15 03:09:26;;;;;;;129.10;58.20;;;17.00;64.50;;;;;;5063356;28;20086;-42
2023/12/15 03:11:52;;;;;;;128.50;57.85;;;17.00;64.50;;;;;;5060012;28;20681;-46
2023/12/15 03:14:18;;;;;;;127.80;57.35;;;17.00;64.50;;;;;;5064453;28;20094;-43
2023/12/15 03:16:43;;;;;;;127.88;57.65;;;17.00;64.50;;;;;;5056333;28;20251;-41
2023/12/15 03:19:09;;;;;;;127.60;57.28;;;17.00;64.60;;;;;;5058650;28;20059;-42
2023/12/15 03:21:35;;;;;;;128.15;57.70;;;17.00;64.50;;;;;;5054400;28;20037;-43
2023/12/15 03:24:00;;;;;;;128.32;58.15;;;16.90;64.50;;;;;;5053882;28;20068;-43
2023/12/15 03:26:26;;;;;;;128.23;58.15;;;17.00;64.60;;;;;;5051453;28;20045;-45
2023/12/15 03:28:53;;;;;;;129.55;57.95;;;16.90;64.50;;;;;;5058698;28;20038;-45
2023/12/15 03:31:18;;;;;;;128.63;57.78;;;16.90;64.60;;;;;;5056150;28;20041;-41
2023/12/15 03:33:44;;;;;;;129.30;58.08;;;16.90;64.60;;;;;;5057918;28;20200;-45
2023/12/15 03:36:10;;;;;;;130.75;57.90;;;16.90;64.70;;;;;;5055024;28;20061;-39
2023/12/15 03:38:36;;;;;;;128.73;57.83;;;16.90;64.90;;;;;;5056831;28;20111;-44
2023/12/15 03:41:02;;;;;;;131.27;58.17;;;16.80;64.80;;;;;;5048613;28;20364;-43
2023/12/15 03:43:28;;;;;;;128.00;57.20;;;16.90;64.90;;;;;;5050386;28;20053;-40
2023/12/15 03:45:53;;;;;;;126.90;57.75;;;16.90;65.00;;;;;;5053001;28;20124;-44
2023/12/15 03:48:19;;;;;;;128.52;57.83;;;16.90;64.90;;;;;;5055755;28;20072;-43
2023/12/15 03:50:44;;;;;;;130.18;58.60;;;16.80;64.80;;;;;;5055698;28;20044;-42
2023/12/15 03:53:10;;;;;;;129.02;57.85;;;16.80;64.90;;;;;;5052622;28;20153;-41
2023/12/15 03:55:36;;;;;;;130.07;57.95;;;16.80;65.00;;;;;;5058479;28;20055;-45
2023/12/15 03:58:01;;;;;;;129.52;57.72;;;16.80;65.00;;;;;;5055125;28;20557;-42
2023/12/15 04:00:28;;;;;;;130.02;58.60;;;16.80;65.00;;;;;;5050128;28;20113;-42
2023/12/15 04:02:54;;;;;;;129.40;58.47;;;16.80;65.00;;;;;;5054629;28;20044;-44
2023/12/15 04:05:20;;;;;;;128.38;57.97;;;16.80;65.10;;;;;;5056336;28;20083;-40
2023/12/15 04:07:46;;;;;;;126.68;58.13;;;16.80;65.10;;;;;;5053197;28;20037;-47
2023/12/15 04:10:12;;;;;;;129.20;58.70;;;16.70;65.00;;;;;;5056071;28;21014;-45
2023/12/15 04:12:37;;;;;;;129.02;58.45;;;16.70;65.20;;;;;;5051358;28;21176;-44
2023/12/15 04:15:04;;;;;;;129.30;57.95;;;16.70;65.10;;;;;;5056675;28;20041;-45
2023/12/15 04:17:29;;;;;;;128.57;58.08;;;16.70;65.50;;;;;;5053403;28;20033;-41
2023/12/15 04:19:55;;;;;;;128.05;58.00;;;16.80;65.30;;;;;;5052968;28;20044;-41
2023/12/15 04:22:22;;;;;;;129.05;58.17;;;16.70;65.30;;;;;;5056470;28;20041;-40
2023/12/15 04:24:48;;;;;;;128.73;58.40;;;16.70;65.30;;;;;;5054223;28;20174;-42
2023/12/15 04:27:14;;;;;;;128.18;57.63;;;16.70;65.30;;;;;;5051422;28;20108;-42
2023/12/15 04:29:40;;;;;;;129.15;57.92;;;16.70;65.40;;;;;;5053987;28;20033;-41
2023/12/15 04:32:06;;;;;;;129.38;58.08;;;16.70;65.40;;;;;;5057479;28;20047;-47
2023/12/15 04:34:33;;;;;;;126.70;57.45;;;16.70;65.50;;;;;;5053084;28;20033;-41
2023/12/15 04:36:59;;;;;;;126.82;57.03;;;16.60;65.50;;;;;;5054570;28;20526;-43
2023/12/15 04:39:24;;;;;;;127.10;57.80;;;16.60;65.60;;;;;;5055368;28;20034;-42
2023/12/15 04:41:50;;;;;;;127.30;57.55;;;16.60;65.60;;;;;;5054417;28;20048;-39
2023/12/15 04:44:16;;;;;;;128.48;58.33;;;16.60;65.60;;;;;;5053197;28;20057;-40
2023/12/15 04:46:41;;;;;;;128.65;58.08;;;16.60;65.60;;;;;;5056857;28;20132;-40
2023/12/15 04:49:07;;;;;;;128.00;58.00;;;16.60;65.60;;;;;;5058709;28;20030;-43
2023/12/15 04:51:33;;;;;;;129.07;58.20;;;16.60;65.60;;;;;;5057966;28;20073;-46
2023/12/15 04:53:58;;;;;;;128.25;57.88;;;16.60;65.70;;;;;;5057184;28;20514;-45
2023/12/15 04:56:25;;;;;;;127.68;57.83;;;16.60;65.70;;;;;;5058280;28;20143;-43
2023/12/15 04:58:51;;;;;;;128.45;57.95;;;16.50;65.80;;;;;;5059023;28;20044;-42
2023/12/15 05:01:17;;;;;;;129.38;58.45;;;16.60;65.90;;;;;;5047431;28;20038;-42
2023/12/15 05:03:44;;;;;;;128.05;57.58;;;16.60;65.90;;;;;;5053633;28;20037;-42
2023/12/15 05:06:22;;;;;;;127.60;57.72;;;16.60;65.90;;;;;;5054548;28;20047;-40
2023/12/15 05:08:49;;;;;;;127.53;57.85;;;16.50;65.80;;;;;;5056177;28;20034;-43
2023/12/15 05:11:15;;;;;;;126.88;57.60;;;16.50;65.80;;;;;;5050918;28;20045;-42
2023/12/15 05:13:41;;;;;;;128.63;57.92;;;16.50;65.90;;;;;;5060803;28;20037;-40
2023/12/15 05:16:08;;;;;;;128.55;57.63;;;16.50;65.90;;;;;;5060562;28;20044;-44
2023/12/15 05:18:34;;;;;;;128.45;58.28;;;16.50;66.00;;;;;;5059745;28;20033;-45
2023/12/15 05:20:59;;;;;;;126.32;57.20;;;16.40;66.10;;;;;;5058626;28;20491;-42
2023/12/15 05:23:26;;;;;;;127.47;58.13;;;16.50;66.10;;;;;;5056761;28;20547;-40
2023/12/15 05:25:51;;;;;;;129.82;58.20;;;16.50;66.10;;;;;;5062250;28;21220;-44
2023/12/15 05:28:17;;;;;;;127.88;58.15;;;16.50;66.10;;;;;;5056012;28;20044;-43
2023/12/15 05:30:43;;;;;;;128.00;58.33;;;16.50;66.10;;;;;;5053251;28;20076;-41
2023/12/15 05:33:08;;;;;;;127.68;57.58;;;16.50;66.10;;;;;;5057054;28;20033;-41
2023/12/15 05:35:35;;;;;;;126.15;57.22;;;16.40;66.00;;;;;;5061874;28;20077;-43
2023/12/15 05:38:02;;;;;;;127.30;57.83;;;16.50;66.10;;;;;;5056751;28;20064;-44
2023/12/15 05:40:27;;;;;;;128.75;57.83;;;16.40;66.10;;;;;;5055452;28;20037;-44
2023/12/15 05:42:53;;;;;;;128.55;58.13;;;16.40;66.10;;;;;;5055778;28;20057;-45
2023/12/15 05:45:19;;;;;;;127.38;57.45;;;16.40;66.20;;;;;;5054717;28;20128;-44
2023/12/15 05:47:44;;;;;;;128.25;57.63;;;16.40;66.30;;;;;;5057753;28;20029;-45
2023/12/15 05:50:11;;;;;;;129.57;57.78;;;16.40;66.30;;;;;;5061261;28;20041;-42
2023/12/15 05:52:37;;;;;;;127.72;57.75;;;16.40;66.40;;;;;;5051309;28;20048;-39
2023/12/15 05:55:03;;;;;;;127.93;57.55;;;16.40;66.40;;;;;;5061123;28;20044;-42
2023/12/15 05:57:28;;;;;;;128.82;57.97;;;16.40;66.50;;;;;;5061550;28;20551;-46
2023/12/15 05:59:54;;;;;;;127.38;57.80;;;16.40;67.30;;;;;;5051304;28;20045;-41
2023/12/15 06:02:20;;;;;;;128.55;58.08;;;16.40;66.70;;;;;;5064277;28;20542;-46
2023/12/15 06:04:45;;;;;;;130.15;57.88;;;16.40;66.50;;;;;;5056129;28;20099;-43
2023/12/15 06:07:11;;;;;;;130.70;58.38;;;16.40;66.60;;;;;;5055526;28;20413;-41
2023/12/15 06:09:37;;;;;;;127.68;57.97;;;16.40;66.80;;;;;;5050920;28;20454;-41
2023/12/15 06:12:03;;;;;;;130.18;57.55;;;16.30;66.90;;;;;;5055851;28;20072;-42
2023/12/15 06:14:29;;;;;;;127.82;58.00;;;16.30;66.90;;;;;;5049436;28;20115;-43
2023/12/15 06:16:54;;;;;;;129.95;58.10;;;16.40;66.90;;;;;;5058951;28;20051;-42
2023/12/15 06:19:20;;;;;;;130.02;58.22;;;16.30;66.90;;;;;;5054262;28;20511;-41
2023/12/15 06:21:46;;;;;;;130.65;58.00;;;16.40;67.00;;;;;;5054716;28;20041;-40
2023/12/15 06:24:11;;;;;;;134.15;58.08;;;16.40;66.80;;;;;;5053608;28;20123;-40
2023/12/15 06:26:37;;;;;;;130.07;57.53;;;16.40;66.80;;;;;;5054357;28;20105;-42
2023/12/15 06:29:03;;;;;;;129.63;58.15;;;16.30;66.80;;;;;;5058400;28;20037;-43
2023/12/15 06:31:29;;;;;;;129.70;57.63;;;16.30;67.60;;;;;;5054399;28;20068;-45
2023/12/15 06:33:55;;;;;;;131.32;57.38;;;16.30;67.00;;;;;;5056340;28;20131;-43
2023/12/15 06:36:21;;;;;;;129.63;57.60;;;16.30;66.90;;;;;;5058265;28;20069;-40
2023/12/15 06:38:46;;;;;;;132.18;58.30;;;16.30;66.90;;;;;;5049233;28;20140;-40
2023/12/15 06:41:13;;;;;;;128.82;58.08;;;16.30;66.80;;;;;;5049147;28;20129;-44
2023/12/15 06:43:43;;;;;;;129.77;57.83;;;16.30;66.90;;;;;;5049160;28;20052;-43
2023/12/15 06:46:09;;;;;;;129.02;57.97;;;16.30;66.90;;;;;;5054508;28;20063;-45
2023/12/15 06:48:35;;;;;;;126.55;57.33;;;16.30;66.90;;;;;;5058852;28;20049;-44
2023/12/15 06:51:02;;;;;;;131.20;57.83;;;16.30;66.90;;;;;;5053304;28;20349;-43
2023/12/15 06:53:27;;;;;;;127.70;57.30;;;16.30;67.10;;;;;;5063782;28;20567;-43
2023/12/15 06:55:53;;;;;;;130.68;57.90;;;16.30;67.20;;;;;;5054441;28;20582;-43
2023/12/15 06:58:19;;;;;;;127.07;57.13;;;16.30;67.20;;;;;;5053879;28;20116;-43
2023/12/15 07:00:44;;;;;;;131.30;57.63;;;16.20;67.10;;;;;;5051812;28;20108;-43
2023/12/15 07:03:10;;;;;;;134.32;57.78;;;16.20;67.90;;;;;;5058345;28;20033;-41
2023/12/15 07:05:36;;;;;;;129.60;57.15;;;16.30;67.30;;;;;;5059823;28;20041;-41
2023/12/15 07:08:02;;;;;;;129.90;57.03;;;16.30;67.40;;;;;;5060917;28;20506;-41
2023/12/15 07:10:28;;;;;;;128.70;57.20;;;16.20;67.40;;;;;;5056944;28;20051;-44
2023/12/15 07:12:53;;;;;;;127.90;57.60;;;16.20;67.40;;;;;;5051781;28;20033;-42
2023/12/15 07:15:19;;;;;;;135.88;57.50;;;16.20;67.50;;;;;;5054463;28;20041;-40
2023/12/15 07:17:45;;;;;;;131.60;57.63;;;16.20;67.60;;;;;;5052999;28;20514;-40
2023/12/15 07:20:11;;;;;;;131.00;57.65;;;16.20;67.80;;;;;;5058761;28;20052;-39
2023/12/15 07:22:37;;;;;;;132.35;57.60;;;16.20;68.10;;;;;;5055923;28;20079;-40
2023/12/15 07:25:02;;;;;;;137.65;58.53;;;16.20;68.40;;;;;;5050103;28;20633;-40
2023/12/15 07:27:28;;;;;;;130.43;58.20;;;16.30;69.30;;;;;;5051337;28;25588;-41
2023/12/15 07:29:54;;;;;;;133.80;58.50;;;16.20;68.60;;;;;;5051838;28;20037;-44
2023/12/15 07:32:20;;;;;;;131.50;57.97;;;16.20;68.80;;;;;;5052972;28;20045;-39
2023/12/15 07:34:46;;;;;;;137.05;57.95;;;16.20;69.00;;;;;;5058009;28;20114;-43
2023/12/15 07:37:11;;;;;;;140.48;59.25;;;16.20;69.20;;;;;;5058680;28;20033;-40
2023/12/15 07:39:37;;;;;;;137.88;60.03;;;16.20;69.60;;;;;;5053014;28;20037;-46
2023/12/15 07:42:03;;;;;;;137.38;58.75;;;16.30;70.50;;;;;;5053949;28;20057;-41
2023/12/15 07:44:28;;;;;;;140.55;59.20;;;16.30;69.80;;;;;;5053100;28;20041;-45
2023/12/15 07:46:55;;;;;;;138.57;59.40;;;16.30;70.10;;;;;;5048933;28;20531;-41
2023/12/15 07:49:22;;;;;;;139.52;59.28;;;16.30;70.70;;;;;;5049015;28;20048;-40
2023/12/15 07:51:49;;;;;;;144.18;58.97;;;16.30;71.20;;;;;;5047224;28;20048;-43
2023/12/15 07:54:15;;;;;;;138.77;59.08;;;16.30;70.90;;;;;;5049009;28;20048;-41
2023/12/15 07:56:41;;;;;;;140.50;59.50;;;16.40;72.20;;;;;;5048092;28;20044;-40
2023/12/15 07:59:07;;;;;;;149.20;60.30;;;16.50;70.60;;;;;;5045990;28;20044;-41
2023/12/15 08:01:34;;;;;;;143.00;59.92;;;16.60;70.20;;;;;;5048718;28;20033;-39
2023/12/15 08:04:00;;;;;;;145.95;59.65;;;16.70;70.90;;;;;;5052136;28;20164;-41
2023/12/15 08:06:26;;;;;;;147.38;59.42;;;16.70;69.90;;;;;;5054223;28;20486;-41
2023/12/15 08:08:52;;;;;;;143.30;59.92;;;16.70;69.70;;;;;;5048620;28;20049;-39
2023/12/15 08:11:18;;;;;;;143.88;60.30;;;16.70;70.10;;;;;;5051125;28;20041;-41
2023/12/15 08:13:44;;;;;;;140.18;60.38;;;16.70;70.40;;;;;;5053045;28;20040;-40
2023/12/15 08:16:10;;;;;;;145.00;60.42;;;16.70;70.00;;;;;;5053283;28;20844;-40
2023/12/15 08:18:36;;;;;;;144.45;59.10;;;16.70;70.00;;;;;;5049679;28;20044;-40
2023/12/15 08:21:02;;;;;;;146.38;60.30;;;16.70;69.80;;;;;;5052717;28;20076;-40
2023/12/15 08:23:28;;;;;;;142.52;60.80;;;16.70;70.70;;;;;;5045862;28;20021;-46
2023/12/15 08:25:53;;;;;;;139.63;60.28;;;16.70;69.70;;;;;;5048655;28;20091;-42
2023/12/15 08:28:20;;;;;;;144.15;59.65;;;16.70;69.70;;;;;;5049877;28;20037;-43
2023/12/15 08:30:50;;;;;;;149.50;60.45;;;16.70;69.70;;;;;;5048589;28;26274;-40
2023/12/15 08:33:16;;;;;;;143.68;59.92;;;16.80;70.00;;;;;;5055572;28;20194;-42
2023/12/15 08:35:42;;;;;;;153.65;60.92;;;16.80;70.20;;;;;;5040493;28;20138;-40
2023/12/15 08:38:08;;;;;;;147.20;61.55;;;16.80;70.20;;;;;;5037534;28;20037;-41
2023/12/15 08:40:34;;;;;;;155.00;61.83;;;16.80;70.30;;;;;;5040851;28;20033;-40
2023/12/15 08:43:00;;;;;;;165.60;63.92;;;16.80;69.70;;;;;;5029385;28;20138;-41
2023/12/15 08:45:25;;;;;;;148.27;62.40;;;16.70;69.90;;;;;;5032569;28;20064;-41
2023/12/15 08:47:51;;;;;;;154.55;62.53;;;16.70;69.40;;;;;;5037666;28;20037;-41
2023/12/15 08:50:17;;;;;;;152.80;63.38;;;16.70;69.30;;;;;;5045791;28;20901;-43
2023/12/15 08:52:44;;;;;;;150.43;62.67;;;16.70;69.50;;;;;;5042519;28;20376;-40
2023/12/15 08:55:10;;;;;;;144.32;61.85;;;16.70;69.20;;;;;;5046776;28;20047;-41
2023/12/15 08:57:36;;;;;;;154.18;62.70;;;16.70;69.10;;;;;;5046593;28;20053;-43
2023/12/15 09:00:04;;;;;;;152.02;62.10;;;16.70;69.10;;;;;;5047041;28;20041;-41
2023/12/15 09:02:30;;;;;;;148.30;62.75;;;16.70;69.30;;;;;;5040119;28;20056;-40
2023/12/15 09:04:56;;;;;;;148.45;63.05;;;16.70;69.10;;;;;;5049380;28;20156;-41
2023/12/15 09:07:21;;;;;;;144.63;62.40;;;16.70;68.10;;;;;;5040308;28;20045;-41
2023/12/15 09:09:47;;;;;;;145.48;61.60;;;16.70;67.30;;;;;;5053517;28;20478;-39
2023/12/15 09:12:13;;;;;;;149.52;63.55;;;16.60;68.20;;;;;;5043344;28;26013;-40
2023/12/15 09:14:38;;;;;;;146.25;63.15;;;16.70;68.70;;;;;;5045376;28;20063;-40
2023/12/15 09:17:05;;;;;;;146.70;62.60;;;16.70;68.70;;;;;;5047191;28;20050;-40
2023/12/15 09:19:31;;;;;;;151.35;61.47;;;16.70;68.80;;;;;;5038912;28;20085;-39
2023/12/15 09:21:57;;;;;;;144.65;62.05;;;16.70;68.80;;;;;;5046588;28;20041;-41
2023/12/15 09:24:23;;;;;;;143.45;61.80;;;16.70;68.20;;;;;;5048249;28;20085;-40
2023/12/15 09:26:48;;;;;;;139.00;61.42;;;16.60;68.50;;;;;;5054736;28;21118;-40
2023/12/15 09:29:15;;;;;;;146.98;61.55;;;16.60;69.00;;;;;;5047139;28;20463;-42
2023/12/15 09:31:41;;;;;;;146.77;61.97;;;16.60;69.10;;;;;;5046296;28;20079;-41
2023/12/15 09:34:07;;;;;;;144.73;61.97;;;16.60;68.90;;;;;;5047077;28;20037;-40
2023/12/15 09:36:34;;;;;;;142.15;60.95;;;16.60;69.30;;;;;;5048427;28;20072;-41
2023/12/15 09:39:00;;;;;;;144.05;59.80;;;16.60;70.10;;;;;;5044402;28;20037;-47
2023/12/15 09:41:26;;;;;;;144.23;60.38;;;16.70;69.70;;;;;;5057977;28;20177;-44
2023/12/15 09:43:52;;;;;;;139.95;60.67;;;16.70;69.60;;;;;;5051533;28;20110;-44
2023/12/15 09:46:17;;;;;;;141.55;60.40;;;16.70;69.40;;;;;;5060104;28;20044;-42
2023/12/15 09:48:44;;;;;;;142.60;61.17;;;16.70;69.60;;;;;;5053331;28;20909;-43
2023/12/15 09:51:17;;;;;;;140.68;60.53;;;16.70;69.60;;;;;;5054488;28;20037;-45
2023/12/15 09:53:46;;;;;;;142.52;60.63;;;16.70;69.40;;;;;;5056962;28;20026;-42
2023/12/15 09:56:12;;;;;;;136.27;60.42;;;16.70;69.40;;;;;;5046776;28;20210;-41
2023/12/15 09:58:38;;;;;;;138.80;59.95;;;16.70;69.10;;;;;;5051355;28;20037;-48
2023/12/15 10:01:04;;;;;;;141.82;61.13;;;16.70;69.20;;;;;;5042653;28;20534;-43
2023/12/15 10:03:31;;;;;;;140.20;60.65;;;16.70;69.20;;;;;;5046864;28;20084;-42
2023/12/15 10:05:56;;;;;;;142.63;61.17;;;16.70;69.80;;;;;;5059347;28;20041;-42
2023/12/15 10:08:24;;;;;;;136.82;59.95;;;16.70;69.60;;;;;;5058594;28;20044;-42
2023/12/15 10:10:50;;;;;;;139.25;60.35;;;16.70;69.70;;;;;;5062059;28;20036;-42
2023/12/15 10:13:16;;;;;;;137.77;60.28;;;16.70;69.60;;;;;;5058974;28;20040;-42
2023/12/15 10:15:41;;;;;;;146.27;60.75;;;16.70;69.60;;;;;;5057399;28;20468;-42
2023/12/15 10:18:07;;;;;;;141.95;60.33;;;16.70;69.60;;;;;;5063448;28;20595;-41
2023/12/15 10:20:33;;;;;;;139.43;59.78;;;16.70;69.60;;;;;;5059668;28;20082;-42
2023/12/15 10:23:04;;;;;;;141.93;59.78;;;16.70;69.80;;;;;;5059523;28;20414;-42
2023/12/15 10:25:32;;;;;;;139.98;60.58;;;16.70;70.40;;;;;;5060305;28;20033;-44
2023/12/15 10:27:58;;;;;;;146.27;60.03;;;16.70;69.70;;;;;;5060031;28;20045;-43
2023/12/15 10:30:24;;;;;;;146.25;60.22;;;16.70;69.80;;;;;;5062846;28;20036;-44
2023/12/15 10:32:53;;;;;;;142.52;60.33;;;16.70;69.90;;;;;;5053964;28;20063;-42
2023/12/15 10:35:21;;;;;;;146.27;60.47;;;16.70;70.40;;;;;;5059696;28;20150;-43
2023/12/15 10:37:47;;;;;;;144.73;60.40;;;16.70;70.80;;;;;;5053396;28;20052;-42
2023/12/15 10:40:13;;;;;;;143.23;59.75;;;16.70;71.20;;;;;;5059379;28;20044;-40
2023/12/15 10:42:40;;;;;;;144.07;60.78;;;16.70;70.60;;;;;;5056107;28;20064;-42
2023/12/15 10:45:07;;;;;;;143.32;61.50;;;16.70;70.90;;;;;;5064270;28;20041;-41
2023/12/15 10:47:33;;;;;;;138.52;60.60;;;16.60;66.20;;;;;;5055672;28;20037;-42
2023/12/15 10:50:01;;;;;;;137.40;60.03;;;16.60;68.40;;;;;;5056573;28;20037;-41
2023/12/15 10:52:26;;;;;;;136.98;59.72;;;16.60;68.80;;;;;;5055787;28;20084;-43
2023/12/15 10:54:52;;;;;;;139.90;60.17;;;16.70;68.90;;;;;;5062728;28;20369;-44
2023/12/15 10:57:21;;;;;;;140.35;59.85;;;16.70;69.00;;;;;;5059735;28;20041;-44
2023/12/15 10:59:50;;;;;;;139.57;59.50;;;16.60;69.00;;;;;;5066553;28;20062;-41
2023/12/15 11:02:18;;;;;;;133.85;59.50;;;16.70;69.10;;;;;;5061954;28;20091;-44
2023/12/15 11:04:46;;;;;;;136.75;59.92;;;16.70;69.00;;;;;;5061040;28;20041;-42
2023/12/15 11:07:12;;;;;;;149.50;60.38;;;16.70;69.10;;;;;;5059226;28;20558;-41
2023/12/15 11:09:37;;;;;;;139.15;58.45;;;16.70;69.40;;;;;;5058602;28;20037;-40
2023/12/15 11:12:24;;;;;;;138.90;59.70;;;16.70;70.00;;;;;;5060498;28;20066;-39
2023/12/15 11:15:02;;;;;;;138.23;58.63;;;16.80;70.50;;;;;;5067648;28;20041;-38
2023/12/15 11:17:29;;;;;;;150.02;58.67;;;16.80;70.00;;;;;;5063603;28;20044;-39
2023/12/15 11:20:06;;;;;;;140.65;58.95;;;16.90;69.90;;;;;;5063593;28;20032;-38
2023/12/15 11:22:41;;;;;;;139.80;58.70;;;16.80;69.10;;;;;;5058007;28;20053;-39
2023/12/15 11:25:08;;;;;;;140.02;58.78;;;16.80;69.40;;;;;;5056842;28;20598;-38
2023/12/15 11:28:08;;;;;;;140.98;59.95;;;16.80;69.40;;;;;;5062276;28;20211;-38
2023/12/15 11:30:42;;;;;;;140.07;59.30;;;16.80;69.50;;;;;;5062272;28;20527;-38
2023/12/15 11:33:29;;;;;;;138.45;58.72;;;16.80;70.40;;;;;;5063125;28;20044;-40
2023/12/15 11:36:09;;;;;;;139.02;58.25;;;16.80;69.40;;;;;;5060476;28;20045;-39
2023/12/15 11:38:36;;;;;;;137.75;59.25;;;16.90;69.50;;;;;;5061591;28;20144;-39
2023/12/15 11:41:03;;;;;;;140.23;58.25;;;16.80;69.60;;;;;;5058795;28;20048;-41
2023/12/15 11:43:33;;;;;;;137.23;58.28;;;16.80;69.70;;;;;;5062437;28;20211;-43
2023/12/15 11:46:00;;;;;;;136.30;58.10;;;16.90;69.70;;;;;;5058144;28;20128;-40
2023/12/15 11:48:26;;;;;;;135.52;57.97;;;16.90;69.40;;;;;;5059208;28;20098;-40
2023/12/15 11:50:51;;;;;;;138.10;59.17;;;16.80;69.30;;;;;;5056655;28;20413;-39
2023/12/15 11:53:18;;;;;;;135.73;58.13;;;16.80;69.20;;;;;;5060890;28;20110;-39
2023/12/15 11:55:50;;;;;;;135.45;57.92;;;16.80;69.10;;;;;;5059483;28;20426;-41
2023/12/15 11:58:18;;;;;;;134.82;57.92;;;16.80;69.40;;;;;;5063018;28;20898;-39
2023/12/15 12:00:43;;;;;;;134.48;58.05;;;16.80;69.40;;;;;;5063096;28;20033;-39
2023/12/15 12:03:13;;;;;;;135.50;58.55;;;16.80;69.30;;;;;;5063961;28;20049;-39
2023/12/15 12:05:40;;;;;;;141.68;57.80;;;16.80;69.50;;;;;;5056722;28;20511;-39
2023/12/15 12:08:06;;;;;;;135.90;58.55;;;16.80;70.10;;;;;;5060231;28;20041;-38
2023/12/15 12:10:32;;;;;;;137.77;58.65;;;16.80;71.30;;;;;;5057809;28;20029;-40
2023/12/15 12:12:59;;;;;;;131.80;58.25;;;16.90;72.90;;;;;;5058296;28;20042;-40